sensor_id;sensor_type;location;lat;lon;timestamp;temperature;humidity
68051;DHT22;54839;51.364;7.246;2023-04-25T00:01:14;5.80;99.90
68051;DHT22;54839;51.364;7.246;2023-04-25T00:03:40;5.80;99.90
68051;DHT22;54839;51.364;7.246;2023-04-25T00:06:06;5.90;99.90
68051;DHT22;54839;51.364;7.246;2023-04-25T00:08:32;6.10;99.90
68051;DHT22;54839;51.364;7.246;2023-04-25T00:10:58;6.10;99.90
68051;DHT22;54839;51.364;7.246;2023-04-25T00:13:24;6.10;99.90
68051;DHT22;54839;51.364;7.246;2023-04-25T00:15:51;6.20;99.90
68051;DHT22;54839;51.364;7.246;2023-04-25T00:18:18;6.10;99.90
68051;DHT22;54839;51.364;7.246;2023-04-25T00:20:44;6.10;99.90
68051;DHT22;54839;51.364;7.246;2023-04-25T00:23:09;6.20;99.90
68051;DHT22;54839;51.364;7.246;2023-04-25T00:25:35;6.10;99.90
68051;DHT22;54839;51.364;7.246;2023-04-25T00:28:01;6.10;99.90
68051;DHT22;54839;51.364;7.246;2023-04-25T00:30:26;6.20;99.90
68051;DHT22;54839;51.364;7.246;2023-04-25T00:32:52;6.30;99.90
68051;DHT22;54839;51.364;7.246;2023-04-25T00:35:18;6.10;99.90
68051;DHT22;54839;51.364;7.246;2023-04-25T00:37:44;6.10;99.90
68051;DHT22;54839;51.364;7.246;2023-04-25T00:40:10;6.20;99.90
68051;DHT22;54839;51.364;7.246;2023-04-25T00:42:35;6.20;99.90
68051;DHT22;54839;51.364;7.246;2023-04-25T00:45:04;6.30;99.90
68051;DHT22;54839;51.364;7.246;2023-04-25T00:47:30;6.20;99.90
68051;DHT22;54839;51.364;7.246;2023-04-25T00:49:57;6.10;99.90
68051;DHT22;54839;51.364;7.246;2023-04-25T00:52:22;6.20;99.90
68051;DHT22;54839;51.364;7.246;2023-04-25T00:54:48;6.10;99.90
68051;DHT22;54839;51.364;7.246;2023-04-25T00:57:13;6.20;99.90
68051;DHT22;54839;51.364;7.246;2023-04-25T00:59:44;6.20;99.90
68051;DHT22;54839;51.364;7.246;2023-04-25T01:02:10;6.20;99.90
68051;DHT22;54839;51.364;7.246;2023-04-25T01:04:36;6.10;99.90
68051;DHT22;54839;51.364;7.246;2023-04-25T01:07:02;6.20;99.90
68051;DHT22;54839;51.364;7.246;2023-04-25T01:09:28;6.10;99.90
68051;DHT22;54839;51.364;7.246;2023-04-25T01:11:55;6.20;99.90
68051;DHT22;54839;51.364;7.246;2023-04-25T01:14:20;6.20;99.90
68051;DHT22;54839;51.364;7.246;2023-04-25T01:16:46;6.10;99.90
68051;DHT22;54839;51.364;7.246;2023-04-25T01:19:16;6.20;99.90
68051;DHT22;54839;51.364;7.246;2023-04-25T01:21:42;6.20;99.90
68051;DHT22;54839;51.364;7.246;2023-04-25T01:24:07;6.20;99.90
68051;DHT22;54839;51.364;7.246;2023-04-25T01:26:33;6.10;99.90
68051;DHT22;54839;51.364;7.246;2023-04-25T01:29:00;6.20;99.90
68051;DHT22;54839;51.364;7.246;2023-04-25T01:31:27;6.20;99.90
68051;DHT22;54839;51.364;7.246;2023-04-25T01:33:52;6.20;99.90
68051;DHT22;54839;51.364;7.246;2023-04-25T01:36:18;6.10;99.90
68051;DHT22;54839;51.364;7.246;2023-04-25T01:38:44;6.20;99.90
68051;DHT22;54839;51.364;7.246;2023-04-25T01:41:11;6.20;99.90
68051;DHT22;54839;51.364;7.246;2023-04-25T01:43:37;6.20;99.90
68051;DHT22;54839;51.364;7.246;2023-04-25T01:46:03;6.20;99.90
68051;DHT22;54839;51.364;7.246;2023-04-25T01:48:28;6.30;99.90
68051;DHT22;54839;51.364;7.246;2023-04-25T01:50:54;6.30;99.90
68051;DHT22;54839;51.364;7.246;2023-04-25T01:53:20;6.20;99.90
68051;DHT22;54839;51.364;7.246;2023-04-25T01:55:45;6.30;99.90
68051;DHT22;54839;51.364;7.246;2023-04-25T01:58:11;6.30;99.90
68051;DHT22;54839;51.364;7.246;2023-04-25T02:00:38;6.10;99.90
68051;DHT22;54839;51.364;7.246;2023-04-25T02:03:05;6.20;99.90
68051;DHT22;54839;51.364;7.246;2023-04-25T02:05:38;6.20;99.90
68051;DHT22;54839;51.364;7.246;2023-04-25T02:08:06;6.10;99.90
68051;DHT22;54839;51.364;7.246;2023-04-25T02:10:32;6.10;99.90
68051;DHT22;54839;51.364;7.246;2023-04-25T02:12:58;6.10;99.90
68051;DHT22;54839;51.364;7.246;2023-04-25T02:15:24;6.00;99.90
68051;DHT22;54839;51.364;7.246;2023-04-25T02:17:50;6.10;99.90
68051;DHT22;54839;51.364;7.246;2023-04-25T02:20:15;6.10;99.90
68051;DHT22;54839;51.364;7.246;2023-04-25T02:22:41;6.10;99.90
68051;DHT22;54839;51.364;7.246;2023-04-25T02:25:08;6.10;99.90
68051;DHT22;54839;51.364;7.246;2023-04-25T02:27:34;6.00;99.90
68051;DHT22;54839;51.364;7.246;2023-04-25T02:30:01;6.10;99.90
68051;DHT22;54839;51.364;7.246;2023-04-25T02:32:26;6.10;99.90
68051;DHT22;54839;51.364;7.246;2023-04-25T02:34:52;6.10;99.90
68051;DHT22;54839;51.364;7.246;2023-04-25T02:37:17;6.00;99.90
68051;DHT22;54839;51.364;7.246;2023-04-25T02:39:43;5.90;99.90
68051;DHT22;54839;51.364;7.246;2023-04-25T02:42:09;6.00;99.90
68051;DHT22;54839;51.364;7.246;2023-04-25T02:44:34;6.00;99.90
68051;DHT22;54839;51.364;7.246;2023-04-25T02:47:00;6.00;99.90
68051;DHT22;54839;51.364;7.246;2023-04-25T02:49:25;6.00;99.90
68051;DHT22;54839;51.364;7.246;2023-04-25T02:51:51;6.00;99.90
68051;DHT22;54839;51.364;7.246;2023-04-25T02:54:16;5.90;99.90
68051;DHT22;54839;51.364;7.246;2023-04-25T02:56:42;5.90;99.90
68051;DHT22;54839;51.364;7.246;2023-04-25T02:59:07;5.90;99.90
68051;DHT22;54839;51.364;7.246;2023-04-25T03:01:33;5.90;99.90
68051;DHT22;54839;51.364;7.246;2023-04-25T03:03:58;5.90;99.90
68051;DHT22;54839;51.364;7.246;2023-04-25T03:06:24;5.90;99.90
68051;DHT22;54839;51.364;7.246;2023-04-25T03:08:49;6.00;99.90
68051;DHT22;54839;51.364;7.246;2023-04-25T03:11:15;6.00;99.90
68051;DHT22;54839;51.364;7.246;2023-04-25T03:13:40;6.00;99.90
68051;DHT22;54839;51.364;7.246;2023-04-25T03:16:06;6.10;99.90
68051;DHT22;54839;51.364;7.246;2023-04-25T03:18:32;6.10;99.90
68051;DHT22;54839;51.364;7.246;2023-04-25T03:20:57;6.10;99.90
68051;DHT22;54839;51.364;7.246;2023-04-25T03:23:23;6.20;99.90
68051;DHT22;54839;51.364;7.246;2023-04-25T03:25:48;6.00;99.90
68051;DHT22;54839;51.364;7.246;2023-04-25T03:28:14;6.00;99.90
68051;DHT22;54839;51.364;7.246;2023-04-25T03:30:39;6.00;99.90
68051;DHT22;54839;51.364;7.246;2023-04-25T03:33:05;5.90;99.90
68051;DHT22;54839;51.364;7.246;2023-04-25T03:35:31;5.90;99.90
68051;DHT22;54839;51.364;7.246;2023-04-25T03:37:56;5.70;99.90
68051;DHT22;54839;51.364;7.246;2023-04-25T03:40:22;5.60;99.90
68051;DHT22;54839;51.364;7.246;2023-04-25T03:42:47;5.50;99.90
68051;DHT22;54839;51.364;7.246;2023-04-25T03:45:13;5.50;99.90
68051;DHT22;54839;51.364;7.246;2023-04-25T03:47:38;5.60;99.90
68051;DHT22;54839;51.364;7.246;2023-04-25T03:50:04;5.70;99.90
68051;DHT22;54839;51.364;7.246;2023-04-25T03:52:30;5.70;99.90
68051;DHT22;54839;51.364;7.246;2023-04-25T03:54:55;5.60;99.90
68051;DHT22;54839;51.364;7.246;2023-04-25T03:57:21;5.60;99.90
68051;DHT22;54839;51.364;7.246;2023-04-25T03:59:46;5.70;99.90
68051;DHT22;54839;51.364;7.246;2023-04-25T04:02:12;5.70;99.90
68051;DHT22;54839;51.364;7.246;2023-04-25T04:04:38;5.70;99.90
68051;DHT22;54839;51.364;7.246;2023-04-25T04:07:03;5.70;99.90
68051;DHT22;54839;51.364;7.246;2023-04-25T04:09:29;5.80;99.90
68051;DHT22;54839;51.364;7.246;2023-04-25T04:11:55;5.80;99.90
68051;DHT22;54839;51.364;7.246;2023-04-25T04:14:20;5.70;99.90
68051;DHT22;54839;51.364;7.246;2023-04-25T04:16:46;5.80;99.90
68051;DHT22;54839;51.364;7.246;2023-04-25T04:19:11;5.80;99.90
68051;DHT22;54839;51.364;7.246;2023-04-25T04:21:37;5.80;99.90
68051;DHT22;54839;51.364;7.246;2023-04-25T04:24:02;5.90;99.90
68051;DHT22;54839;51.364;7.246;2023-04-25T04:26:28;5.90;99.90
68051;DHT22;54839;51.364;7.246;2023-04-25T04:28:54;6.00;99.90
68051;DHT22;54839;51.364;7.246;2023-04-25T04:31:21;5.80;99.90
68051;DHT22;54839;51.364;7.246;2023-04-25T04:33:47;5.90;99.90
68051;DHT22;54839;51.364;7.246;2023-04-25T04:36:13;6.00;99.90
68051;DHT22;54839;51.364;7.246;2023-04-25T04:38:39;5.90;99.90
68051;DHT22;54839;51.364;7.246;2023-04-25T04:41:06;6.00;99.90
68051;DHT22;54839;51.364;7.246;2023-04-25T04:43:32;6.00;99.90
68051;DHT22;54839;51.364;7.246;2023-04-25T04:46:02;6.00;99.90
68051;DHT22;54839;51.364;7.246;2023-04-25T04:48:29;6.10;99.90
68051;DHT22;54839;51.364;7.246;2023-04-25T04:50:58;6.10;99.90
68051;DHT22;54839;51.364;7.246;2023-04-25T04:53:23;6.00;99.90
68051;DHT22;54839;51.364;7.246;2023-04-25T04:55:49;5.90;99.90
68051;DHT22;54839;51.364;7.246;2023-04-25T04:58:15;5.90;99.90
68051;DHT22;54839;51.364;7.246;2023-04-25T05:00:40;5.70;99.90
68051;DHT22;54839;51.364;7.246;2023-04-25T05:03:06;5.70;99.90
68051;DHT22;54839;51.364;7.246;2023-04-25T05:05:31;5.60;99.90
68051;DHT22;54839;51.364;7.246;2023-04-25T05:07:57;5.70;99.90
68051;DHT22;54839;51.364;7.246;2023-04-25T05:10:22;5.50;99.90
68051;DHT22;54839;51.364;7.246;2023-04-25T05:12:48;5.60;99.90
68051;DHT22;54839;51.364;7.246;2023-04-25T05:15:13;5.70;99.90
68051;DHT22;54839;51.364;7.246;2023-04-25T05:17:39;5.70;99.90
68051;DHT22;54839;51.364;7.246;2023-04-25T05:20:07;5.60;99.90
68051;DHT22;54839;51.364;7.246;2023-04-25T05:22:34;5.70;99.90
68051;DHT22;54839;51.364;7.246;2023-04-25T05:24:59;5.70;99.90
68051;DHT22;54839;51.364;7.246;2023-04-25T05:27:25;5.70;99.90
68051;DHT22;54839;51.364;7.246;2023-04-25T05:29:50;5.80;99.90
68051;DHT22;54839;51.364;7.246;2023-04-25T05:32:17;5.70;99.90
68051;DHT22;54839;51.364;7.246;2023-04-25T05:34:42;5.80;99.90
68051;DHT22;54839;51.364;7.246;2023-04-25T05:37:08;5.90;99.90
68051;DHT22;54839;51.364;7.246;2023-04-25T05:39:34;6.10;99.90
68051;DHT22;54839;51.364;7.246;2023-04-25T05:41:59;6.10;99.90
68051;DHT22;54839;51.364;7.246;2023-04-25T05:44:25;6.20;99.90
68051;DHT22;54839;51.364;7.246;2023-04-25T05:46:51;6.00;99.90
68051;DHT22;54839;51.364;7.246;2023-04-25T05:49:17;6.00;99.90
68051;DHT22;54839;51.364;7.246;2023-04-25T05:51:42;6.00;99.90
68051;DHT22;54839;51.364;7.246;2023-04-25T05:54:08;6.10;99.90
68051;DHT22;54839;51.364;7.246;2023-04-25T05:56:33;6.10;99.90
68051;DHT22;54839;51.364;7.246;2023-04-25T05:58:59;6.20;99.90
68051;DHT22;54839;51.364;7.246;2023-04-25T06:01:24;6.30;99.90
68051;DHT22;54839;51.364;7.246;2023-04-25T06:03:50;6.30;99.90
68051;DHT22;54839;51.364;7.246;2023-04-25T06:06:18;6.50;99.90
68051;DHT22;54839;51.364;7.246;2023-04-25T06:08:44;6.50;99.90
68051;DHT22;54839;51.364;7.246;2023-04-25T06:11:10;6.70;99.90
68051;DHT22;54839;51.364;7.246;2023-04-25T06:13:35;6.70;99.90
68051;DHT22;54839;51.364;7.246;2023-04-25T06:16:01;6.80;99.90
68051;DHT22;54839;51.364;7.246;2023-04-25T06:18:26;6.50;99.90
68051;DHT22;54839;51.364;7.246;2023-04-25T06:20:52;6.60;99.90
68051;DHT22;54839;51.364;7.246;2023-04-25T06:23:17;6.80;99.90
68051;DHT22;54839;51.364;7.246;2023-04-25T06:25:43;6.90;99.90
68051;DHT22;54839;51.364;7.246;2023-04-25T06:28:08;7.20;99.90
68051;DHT22;54839;51.364;7.246;2023-04-25T06:30:34;7.20;99.90
68051;DHT22;54839;51.364;7.246;2023-04-25T06:32:59;7.30;99.90
68051;DHT22;54839;51.364;7.246;2023-04-25T06:35:25;7.30;99.90
68051;DHT22;54839;51.364;7.246;2023-04-25T06:37:51;7.10;99.90
68051;DHT22;54839;51.364;7.246;2023-04-25T06:40:16;7.10;99.90
68051;DHT22;54839;51.364;7.246;2023-04-25T06:42:42;6.80;99.90
68051;DHT22;54839;51.364;7.246;2023-04-25T06:45:08;7.00;99.90
68051;DHT22;54839;51.364;7.246;2023-04-25T06:47:34;7.20;99.90
68051;DHT22;54839;51.364;7.246;2023-04-25T06:50:00;7.40;99.90
68051;DHT22;54839;51.364;7.246;2023-04-25T06:52:25;7.50;99.90
68051;DHT22;54839;51.364;7.246;2023-04-25T06:54:51;7.30;99.90
68051;DHT22;54839;51.364;7.246;2023-04-25T06:57:16;7.10;99.90
68051;DHT22;54839;51.364;7.246;2023-04-25T06:59:42;7.10;99.90
68051;DHT22;54839;51.364;7.246;2023-04-25T07:02:07;7.00;99.90
68051;DHT22;54839;51.364;7.246;2023-04-25T07:04:33;7.10;99.90
68051;DHT22;54839;51.364;7.246;2023-04-25T07:06:58;7.10;99.90
68051;DHT22;54839;51.364;7.246;2023-04-25T07:09:26;7.10;99.90
68051;DHT22;54839;51.364;7.246;2023-04-25T07:11:51;7.20;99.90
68051;DHT22;54839;51.364;7.246;2023-04-25T07:14:17;7.10;99.90
68051;DHT22;54839;51.364;7.246;2023-04-25T07:16:42;7.40;99.90
68051;DHT22;54839;51.364;7.246;2023-04-25T07:19:08;7.50;99.90
68051;DHT22;54839;51.364;7.246;2023-04-25T07:21:33;7.50;99.90
68051;DHT22;54839;51.364;7.246;2023-04-25T07:23:59;7.60;99.90
68051;DHT22;54839;51.364;7.246;2023-04-25T07:26:24;7.50;99.90
68051;DHT22;54839;51.364;7.246;2023-04-25T07:28:50;7.30;99.90
68051;DHT22;54839;51.364;7.246;2023-04-25T07:31:17;7.30;99.90
68051;DHT22;54839;51.364;7.246;2023-04-25T07:33:44;7.10;99.90
68051;DHT22;54839;51.364;7.246;2023-04-25T07:36:11;7.30;99.90
68051;DHT22;54839;51.364;7.246;2023-04-25T07:38:36;7.50;99.90
68051;DHT22;54839;51.364;7.246;2023-04-25T07:41:02;7.80;99.90
68051;DHT22;54839;51.364;7.246;2023-04-25T07:43:27;8.00;99.90
68051;DHT22;54839;51.364;7.246;2023-04-25T07:45:53;8.30;99.90
68051;DHT22;54839;51.364;7.246;2023-04-25T07:48:18;8.30;99.90
68051;DHT22;54839;51.364;7.246;2023-04-25T07:50:44;8.40;99.90
68051;DHT22;54839;51.364;7.246;2023-04-25T07:53:10;8.40;99.90
68051;DHT22;54839;51.364;7.246;2023-04-25T07:55:36;8.50;99.90
68051;DHT22;54839;51.364;7.246;2023-04-25T07:58:08;8.60;99.90
68051;DHT22;54839;51.364;7.246;2023-04-25T08:00:33;8.20;99.90
68051;DHT22;54839;51.364;7.246;2023-04-25T08:02:59;8.50;99.90
68051;DHT22;54839;51.364;7.246;2023-04-25T08:05:24;8.60;99.90
68051;DHT22;54839;51.364;7.246;2023-04-25T08:07:50;8.70;99.90
68051;DHT22;54839;51.364;7.246;2023-04-25T08:10:15;8.50;99.90
68051;DHT22;54839;51.364;7.246;2023-04-25T08:12:41;8.20;99.90
68051;DHT22;54839;51.364;7.246;2023-04-25T08:15:07;8.00;99.90
68051;DHT22;54839;51.364;7.246;2023-04-25T08:17:33;7.80;99.90
68051;DHT22;54839;51.364;7.246;2023-04-25T08:19:58;7.60;99.90
68051;DHT22;54839;51.364;7.246;2023-04-25T08:22:24;7.40;99.90
68051;DHT22;54839;51.364;7.246;2023-04-25T08:24:50;7.90;99.90
68051;DHT22;54839;51.364;7.246;2023-04-25T08:27:15;8.20;99.90
68051;DHT22;54839;51.364;7.246;2023-04-25T08:29:41;8.60;99.90
68051;DHT22;54839;51.364;7.246;2023-04-25T08:32:07;8.70;99.90
68051;DHT22;54839;51.364;7.246;2023-04-25T08:34:32;9.30;99.90
68051;DHT22;54839;51.364;7.246;2023-04-25T08:36:58;9.30;99.90
68051;DHT22;54839;51.364;7.246;2023-04-25T08:39:24;9.20;99.90
68051;DHT22;54839;51.364;7.246;2023-04-25T08:41:50;9.20;99.90
68051;DHT22;54839;51.364;7.246;2023-04-25T08:44:16;9.20;99.90
68051;DHT22;54839;51.364;7.246;2023-04-25T08:46:42;8.70;99.90
68051;DHT22;54839;51.364;7.246;2023-04-25T08:49:11;8.90;99.90
68051;DHT22;54839;51.364;7.246;2023-04-25T08:51:44;8.90;99.90
68051;DHT22;54839;51.364;7.246;2023-04-25T08:54:13;8.80;99.90
68051;DHT22;54839;51.364;7.246;2023-04-25T08:56:41;9.00;99.90
68051;DHT22;54839;51.364;7.246;2023-04-25T08:59:09;9.60;99.90
68051;DHT22;54839;51.364;7.246;2023-04-25T09:01:35;10.10;99.90
68051;DHT22;54839;51.364;7.246;2023-04-25T09:04:01;10.60;99.90
68051;DHT22;54839;51.364;7.246;2023-04-25T09:06:29;9.60;99.90
68051;DHT22;54839;51.364;7.246;2023-04-25T09:09:03;9.40;99.90
68051;DHT22;54839;51.364;7.246;2023-04-25T09:11:31;9.30;99.90
68051;DHT22;54839;51.364;7.246;2023-04-25T09:14:16;9.30;99.90
68051;DHT22;54839;51.364;7.246;2023-04-25T09:19:27;9.80;99.90
68051;DHT22;54839;51.364;7.246;2023-04-25T09:21:59;9.60;99.90
68051;DHT22;54839;51.364;7.246;2023-04-25T09:24:38;9.80;99.90
68051;DHT22;54839;51.364;7.246;2023-04-25T09:27:05;10.00;99.90
68051;DHT22;54839;51.364;7.246;2023-04-25T09:29:35;10.10;99.90
68051;DHT22;54839;51.364;7.246;2023-04-25T09:32:19;10.40;99.90
68051;DHT22;54839;51.364;7.246;2023-04-25T09:34:47;10.40;99.90
68051;DHT22;54839;51.364;7.246;2023-04-25T09:37:27;10.40;99.90
68051;DHT22;54839;51.364;7.246;2023-04-25T09:39:58;10.10;99.90
68051;DHT22;54839;51.364;7.246;2023-04-25T09:42:31;10.10;99.90
68051;DHT22;54839;51.364;7.246;2023-04-25T09:44:58;10.70;99.90
68051;DHT22;54839;51.364;7.246;2023-04-25T09:47:26;11.40;99.90
68051;DHT22;54839;51.364;7.246;2023-04-25T09:49:54;11.80;99.90
68051;DHT22;54839;51.364;7.246;2023-04-25T09:52:22;11.70;99.90
68051;DHT22;54839;51.364;7.246;2023-04-25T09:54:48;11.40;99.90
68051;DHT22;54839;51.364;7.246;2023-04-25T09:57:22;11.20;99.90
68051;DHT22;54839;51.364;7.246;2023-04-25T09:59:56;11.40;99.90
68051;DHT22;54839;51.364;7.246;2023-04-25T10:02:24;11.70;99.90
68051;DHT22;54839;51.364;7.246;2023-04-25T10:04:52;11.70;99.90
68051;DHT22;54839;51.364;7.246;2023-04-25T10:07:22;11.50;99.90
68051;DHT22;54839;51.364;7.246;2023-04-25T10:10:03;11.60;99.90
68051;DHT22;54839;51.364;7.246;2023-04-25T10:12:30;12.30;99.90
68051;DHT22;54839;51.364;7.246;2023-04-25T10:14:59;11.80;99.90
68051;DHT22;54839;51.364;7.246;2023-04-25T10:17:26;11.90;99.90
68051;DHT22;54839;51.364;7.246;2023-04-25T10:19:53;11.60;99.90
68051;DHT22;54839;51.364;7.246;2023-04-25T10:25:01;10.50;99.90
68051;DHT22;54839;51.364;7.246;2023-04-25T10:27:29;10.30;99.90
68051;DHT22;54839;51.364;7.246;2023-04-25T10:30:09;10.30;99.90
68051;DHT22;54839;51.364;7.246;2023-04-25T10:32:41;10.30;99.90
68051;DHT22;54839;51.364;7.246;2023-04-25T10:35:14;10.60;99.90
68051;DHT22;54839;51.364;7.246;2023-04-25T10:38:05;11.30;99.90
68051;DHT22;54839;51.364;7.246;2023-04-25T10:40:32;11.60;99.90
68051;DHT22;54839;51.364;7.246;2023-04-25T10:46:12;12.00;99.90
68051;DHT22;54839;51.364;7.246;2023-04-25T10:48:47;12.00;99.90
68051;DHT22;54839;51.364;7.246;2023-04-25T10:51:21;11.60;99.90
68051;DHT22;54839;51.364;7.246;2023-04-25T10:53:57;11.30;99.90
68051;DHT22;54839;51.364;7.246;2023-04-25T10:56:36;11.10;99.90
68051;DHT22;54839;51.364;7.246;2023-04-25T10:59:10;10.70;99.90
68051;DHT22;54839;51.364;7.246;2023-04-25T11:01:40;10.50;99.90
68051;DHT22;54839;51.364;7.246;2023-04-25T11:04:16;10.50;99.90
68051;DHT22;54839;51.364;7.246;2023-04-25T11:07:34;10.90;99.90
68051;DHT22;54839;51.364;7.246;2023-04-25T11:09:41;11.30;99.90
68051;DHT22;54839;51.364;7.246;2023-04-25T11:12:10;11.70;99.90
68051;DHT22;54839;51.364;7.246;2023-04-25T11:14:36;12.00;99.90
68051;DHT22;54839;51.364;7.246;2023-04-25T11:17:02;11.60;99.90
68051;DHT22;54839;51.364;7.246;2023-04-25T11:19:29;11.00;99.90
68051;DHT22;54839;51.364;7.246;2023-04-25T11:21:55;10.50;99.90
68051;DHT22;54839;51.364;7.246;2023-04-25T11:24:29;10.10;99.90
68051;DHT22;54839;51.364;7.246;2023-04-25T11:26:55;9.60;99.90
68051;DHT22;54839;51.364;7.246;2023-04-25T11:29:26;9.20;99.90
68051;DHT22;54839;51.364;7.246;2023-04-25T11:31:52;8.80;99.90
68051;DHT22;54839;51.364;7.246;2023-04-25T11:34:19;8.90;99.90
68051;DHT22;54839;51.364;7.246;2023-04-25T11:36:45;8.90;99.90
68051;DHT22;54839;51.364;7.246;2023-04-25T11:39:11;9.00;99.90
68051;DHT22;54839;51.364;7.246;2023-04-25T11:41:38;9.40;99.90
68051;DHT22;54839;51.364;7.246;2023-04-25T11:44:04;9.60;99.90
68051;DHT22;54839;51.364;7.246;2023-04-25T11:46:29;9.60;99.90
68051;DHT22;54839;51.364;7.246;2023-04-25T11:48:55;10.10;99.90
68051;DHT22;54839;51.364;7.246;2023-04-25T11:51:21;10.30;99.90
68051;DHT22;54839;51.364;7.246;2023-04-25T11:53:47;10.80;99.90
68051;DHT22;54839;51.364;7.246;2023-04-25T11:56:13;11.20;99.90
68051;DHT22;54839;51.364;7.246;2023-04-25T11:58:55;11.70;99.90
68051;DHT22;54839;51.364;7.246;2023-04-25T12:01:35;12.00;99.90
68051;DHT22;54839;51.364;7.246;2023-04-25T12:04:18;11.60;99.90
68051;DHT22;54839;51.364;7.246;2023-04-25T12:06:45;11.30;99.90
68051;DHT22;54839;51.364;7.246;2023-04-25T12:09:15;11.10;99.90
68051;DHT22;54839;51.364;7.246;2023-04-25T12:11:54;10.80;99.90
68051;DHT22;54839;51.364;7.246;2023-04-25T12:14:27;11.00;99.90
68051;DHT22;54839;51.364;7.246;2023-04-25T12:16:56;10.50;99.90
68051;DHT22;54839;51.364;7.246;2023-04-25T12:19:23;10.70;99.90
68051;DHT22;54839;51.364;7.246;2023-04-25T12:21:49;10.70;99.90
68051;DHT22;54839;51.364;7.246;2023-04-25T12:24:23;11.50;99.90
68051;DHT22;54839;51.364;7.246;2023-04-25T12:26:52;11.90;99.90
68051;DHT22;54839;51.364;7.246;2023-04-25T12:29:30;12.00;99.90
68051;DHT22;54839;51.364;7.246;2023-04-25T12:31:56;12.10;99.90
68051;DHT22;54839;51.364;7.246;2023-04-25T12:34:22;11.70;99.90
68051;DHT22;54839;51.364;7.246;2023-04-25T12:36:50;11.10;99.90
68051;DHT22;54839;51.364;7.246;2023-04-25T12:39:24;10.70;99.90
68051;DHT22;54839;51.364;7.246;2023-04-25T12:41:50;10.60;99.90
68051;DHT22;54839;51.364;7.246;2023-04-25T12:44:17;10.60;99.90
68051;DHT22;54839;51.364;7.246;2023-04-25T12:46:43;10.70;99.90
68051;DHT22;54839;51.364;7.246;2023-04-25T12:49:09;10.40;99.90
68051;DHT22;54839;51.364;7.246;2023-04-25T12:51:35;10.30;99.90
68051;DHT22;54839;51.364;7.246;2023-04-25T12:54:02;10.30;99.90
68051;DHT22;54839;51.364;7.246;2023-04-25T12:56:29;10.60;99.90
68051;DHT22;54839;51.364;7.246;2023-04-25T12:58:54;10.20;99.90
68051;DHT22;54839;51.364;7.246;2023-04-25T13:01:21;10.70;99.90
68051;DHT22;54839;51.364;7.246;2023-04-25T13:03:47;10.90;99.90
68051;DHT22;54839;51.364;7.246;2023-04-25T13:06:13;10.90;99.90
68051;DHT22;54839;51.364;7.246;2023-04-25T13:08:39;11.00;99.90
68051;DHT22;54839;51.364;7.246;2023-04-25T13:11:05;11.10;99.90
68051;DHT22;54839;51.364;7.246;2023-04-25T13:13:31;11.90;99.90
68051;DHT22;54839;51.364;7.246;2023-04-25T13:15:58;12.40;99.90
68051;DHT22;54839;51.364;7.246;2023-04-25T13:18:24;13.90;99.90
68051;DHT22;54839;51.364;7.246;2023-04-25T13:20:53;16.20;99.30
68051;DHT22;54839;51.364;7.246;2023-04-25T13:23:19;18.70;92.40
68051;DHT22;54839;51.364;7.246;2023-04-25T13:25:45;19.20;77.80
68051;DHT22;54839;51.364;7.246;2023-04-25T13:28:11;15.70;72.00
68051;DHT22;54839;51.364;7.246;2023-04-25T13:30:36;13.90;75.20
68051;DHT22;54839;51.364;7.246;2023-04-25T13:33:02;11.90;79.40
68051;DHT22;54839;51.364;7.246;2023-04-25T13:35:33;11.20;84.80
68051;DHT22;54839;51.364;7.246;2023-04-25T13:37:59;10.30;97.70
68051;DHT22;54839;51.364;7.246;2023-04-25T13:40:25;9.90;99.90
68051;DHT22;54839;51.364;7.246;2023-04-25T13:42:52;9.60;99.90
68051;DHT22;54839;51.364;7.246;2023-04-25T13:45:18;9.80;99.90
68051;DHT22;54839;51.364;7.246;2023-04-25T13:47:43;10.10;99.90
68051;DHT22;54839;51.364;7.246;2023-04-25T13:50:09;10.00;99.90
68051;DHT22;54839;51.364;7.246;2023-04-25T13:52:35;10.10;99.90
68051;DHT22;54839;51.364;7.246;2023-04-25T13:55:00;10.10;99.90
68051;DHT22;54839;51.364;7.246;2023-04-25T13:57:28;10.00;99.90
68051;DHT22;54839;51.364;7.246;2023-04-25T13:59:55;10.00;99.90
68051;DHT22;54839;51.364;7.246;2023-04-25T14:02:21;10.10;99.90
68051;DHT22;54839;51.364;7.246;2023-04-25T14:04:46;9.90;99.90
68051;DHT22;54839;51.364;7.246;2023-04-25T14:07:13;10.00;99.90
68051;DHT22;54839;51.364;7.246;2023-04-25T14:09:41;9.90;99.90
68051;DHT22;54839;51.364;7.246;2023-04-25T14:12:07;10.20;99.90
68051;DHT22;54839;51.364;7.246;2023-04-25T14:14:32;10.50;99.90
68051;DHT22;54839;51.364;7.246;2023-04-25T14:16:58;10.70;99.90
68051;DHT22;54839;51.364;7.246;2023-04-25T14:19:24;11.00;99.90
68051;DHT22;54839;51.364;7.246;2023-04-25T14:21:49;12.00;99.90
68051;DHT22;54839;51.364;7.246;2023-04-25T14:24:15;15.80;99.90
68051;DHT22;54839;51.364;7.246;2023-04-25T14:26:41;17.80;95.80
68051;DHT22;54839;51.364;7.246;2023-04-25T14:29:08;19.90;86.60
68051;DHT22;54839;51.364;7.246;2023-04-25T14:31:34;21.20;81.90
68051;DHT22;54839;51.364;7.246;2023-04-25T14:34:01;22.70;73.60
68051;DHT22;54839;51.364;7.246;2023-04-25T14:36:28;23.60;64.80
68051;DHT22;54839;51.364;7.246;2023-04-25T14:38:54;24.50;62.20
68051;DHT22;54839;51.364;7.246;2023-04-25T14:41:19;23.10;57.10
68051;DHT22;54839;51.364;7.246;2023-04-25T14:43:45;20.00;58.30
68051;DHT22;54839;51.364;7.246;2023-04-25T14:46:11;17.30;61.00
68051;DHT22;54839;51.364;7.246;2023-04-25T14:48:37;16.40;65.30
68051;DHT22;54839;51.364;7.246;2023-04-25T14:51:02;16.30;67.00
68051;DHT22;54839;51.364;7.246;2023-04-25T14:53:29;16.00;66.30
68051;DHT22;54839;51.364;7.246;2023-04-25T14:55:54;14.80;68.90
68051;DHT22;54839;51.364;7.246;2023-04-25T14:58:20;14.00;71.10
68051;DHT22;54839;51.364;7.246;2023-04-25T15:00:46;13.30;73.30
68051;DHT22;54839;51.364;7.246;2023-04-25T15:03:12;12.80;76.80
68051;DHT22;54839;51.364;7.246;2023-04-25T15:05:39;12.50;77.70
68051;DHT22;54839;51.364;7.246;2023-04-25T15:08:05;12.30;79.20
68051;DHT22;54839;51.364;7.246;2023-04-25T15:10:31;15.10;81.80
68051;DHT22;54839;51.364;7.246;2023-04-25T15:12:56;18.30;74.90
68051;DHT22;54839;51.364;7.246;2023-04-25T15:15:22;21.40;66.20
68051;DHT22;54839;51.364;7.246;2023-04-25T15:17:49;21.60;59.00
68051;DHT22;54839;51.364;7.246;2023-04-25T15:20:14;20.60;58.10
68051;DHT22;54839;51.364;7.246;2023-04-25T15:22:41;19.00;58.10
68051;DHT22;54839;51.364;7.246;2023-04-25T15:25:08;16.90;58.50
68051;DHT22;54839;51.364;7.246;2023-04-25T15:27:34;15.60;61.60
68051;DHT22;54839;51.364;7.246;2023-04-25T15:30:07;13.70;65.20
68051;DHT22;54839;51.364;7.246;2023-04-25T15:32:34;12.00;72.50
68051;DHT22;54839;51.364;7.246;2023-04-25T15:35:02;11.80;76.10
68051;DHT22;54839;51.364;7.246;2023-04-25T15:37:28;12.40;79.00
68051;DHT22;54839;51.364;7.246;2023-04-25T15:40:02;12.80;80.60
68051;DHT22;54839;51.364;7.246;2023-04-25T15:42:45;13.70;79.60
68051;DHT22;54839;51.364;7.246;2023-04-25T15:45:19;15.10;78.10
68051;DHT22;54839;51.364;7.246;2023-04-25T15:47:44;17.50;72.30